createdAt,value
2023-01-20T00:01:40.519Z,100403.84
2023-01-20T00:04:07.314Z,100410.66
2023-01-20T00:06:34.708Z,100443.06
2023-01-20T00:09:03.939Z,100416.84
2023-01-20T00:11:31.455Z,100420.28
2023-01-20T00:14:00.277Z,100419.19
2023-01-20T00:16:28.417Z,100396.47
2023-01-20T00:18:55.540Z,100436.72
2023-01-20T00:21:22.918Z,100398.34
2023-01-20T00:23:50.160Z,100428.75
2023-01-20T00:26:20.013Z,100404.75
2023-01-20T00:28:48.069Z,100410.59
2023-01-20T00:31:27.154Z,100413.22
2023-01-20T00:33:57.032Z,100385.28
2023-01-20T00:36:25.863Z,100424.63
2023-01-20T00:38:52.896Z,100425.13
2023-01-20T00:41:20.297Z,100414.56
2023-01-20T00:43:47.352Z,100402.03
2023-01-20T00:46:15.027Z,100393.88
2023-01-20T00:48:42.233Z,100422.47
2023-01-20T00:51:09.809Z,100423.59
2023-01-20T00:53:37.527Z,100414.13
2023-01-20T00:56:04.921Z,100405.91
2023-01-20T00:58:32.201Z,100425.03
2023-01-20T01:00:59.736Z,100418.44
2023-01-20T01:03:27.432Z,100396.91
2023-01-20T01:05:54.300Z,100431.19
2023-01-20T01:08:21.736Z,100424.59
2023-01-20T01:10:48.586Z,100444.59
2023-01-20T01:13:15.488Z,100421.16
2023-01-20T01:15:48.754Z,100404.06
2023-01-20T01:18:15.887Z,100416.94
2023-01-20T01:20:42.767Z,100416.16
2023-01-20T01:23:09.647Z,100436.06
2023-01-20T01:25:37.936Z,100426.28
2023-01-20T01:28:05.167Z,100434.84
2023-01-20T01:30:32.280Z,100454.56
2023-01-20T01:32:59.198Z,100452.69
2023-01-20T01:35:26.030Z,100477.38
2023-01-20T01:37:53.004Z,100455.88
2023-01-20T01:40:19.895Z,100463.59
2023-01-20T01:42:46.920Z,100458.09
2023-01-20T01:45:18.392Z,100451.25
2023-01-20T01:47:50.726Z,100404.63
2023-01-20T01:50:27.947Z,100446.50
2023-01-20T01:52:57.026Z,100446.28
2023-01-20T01:55:29.279Z,100440.38
2023-01-20T01:57:59.012Z,100447.13
2023-01-20T02:00:26.344Z,100448.53
2023-01-20T02:02:55.201Z,100441.53
2023-01-20T02:05:24.224Z,100446.78
2023-01-20T02:07:52.216Z,100426.16
2023-01-20T02:10:19.258Z,100457.75
2023-01-20T02:12:48.994Z,100478.13
2023-01-20T02:15:17.711Z,100455.72
2023-01-20T02:17:53.335Z,100465.78
2023-01-20T02:20:36.333Z,100442.41
2023-01-20T02:23:40.499Z,100471.22
2023-01-20T02:26:32.080Z,100458.75
2023-01-20T02:29:25.102Z,100480.25
2023-01-20T02:32:10.243Z,100471.00
2023-01-20T02:35:09.897Z,100485.53
2023-01-20T02:37:54.374Z,100482.44
2023-01-20T02:40:44.340Z,100477.44
2023-01-20T02:43:17.248Z,100469.06
2023-01-20T02:45:53.355Z,100480.94
2023-01-20T02:48:41.609Z,100477.06
2023-01-20T02:51:43.094Z,100503.31
2023-01-20T02:54:15.205Z,100481.38
2023-01-20T02:56:43.052Z,100471.91
2023-01-20T02:59:17.284Z,100481.50
2023-01-20T03:01:50.662Z,100483.06
2023-01-20T03:04:22.982Z,100465.88
2023-01-20T03:06:54.542Z,100467.44
2023-01-20T03:09:28.499Z,100465.44
2023-01-20T03:12:01.014Z,100465.97
2023-01-20T03:14:28.353Z,100464.28
2023-01-20T03:16:55.473Z,100461.38
2023-01-20T03:19:22.522Z,100445.06
2023-01-20T03:21:49.525Z,100436.56
2023-01-20T03:24:16.507Z,100464.63
2023-01-20T03:26:43.470Z,100435.66
2023-01-20T03:29:11.188Z,100468.59
2023-01-20T03:31:50.803Z,100446.63
2023-01-20T03:34:22.034Z,100470.94
2023-01-20T03:36:50.371Z,100442.66
2023-01-20T03:39:18.207Z,100449.75
2023-01-20T03:42:13.756Z,100482.31
2023-01-20T03:44:52.304Z,100477.63
2023-01-20T03:47:41.171Z,100472.19
2023-01-20T03:50:39.567Z,100487.69
2023-01-20T03:53:09.594Z,100472.25
2023-01-20T03:55:56.746Z,100499.88
2023-01-20T03:58:31.412Z,100489.03
2023-01-20T04:01:02.131Z,100460.34
2023-01-20T04:03:48.800Z,100498.06
2023-01-20T04:06:18.007Z,100500.13
2023-01-20T04:08:51.994Z,100478.06
2023-01-20T04:11:19.453Z,100467.34
2023-01-20T04:13:46.310Z,100476.41
2023-01-20T04:16:17.866Z,100485.22
2023-01-20T04:18:49.000Z,100496.44
2023-01-20T04:21:21.729Z,100484.13
2023-01-20T04:23:57.960Z,100496.78
2023-01-20T04:26:24.896Z,100473.78
2023-01-20T04:28:51.755Z,100461.50
2023-01-20T04:31:30.005Z,100465.50
2023-01-20T04:33:57.669Z,100501.16
2023-01-20T04:36:24.494Z,100481.66
2023-01-20T04:38:51.623Z,100483.16
2023-01-20T04:41:18.471Z,100500.44
2023-01-20T04:43:46.369Z,100476.00
2023-01-20T04:46:15.094Z,100482.75
2023-01-20T04:48:44.223Z,100480.16
2023-01-20T04:51:11.086Z,100504.91
2023-01-20T04:53:38.282Z,100503.22
2023-01-20T04:56:10.103Z,100500.41
2023-01-20T04:58:37.139Z,100489.75
2023-01-20T05:01:03.993Z,100498.06
2023-01-20T05:03:30.974Z,100503.16
2023-01-20T05:05:57.897Z,100510.31
2023-01-20T05:08:24.947Z,100501.97
2023-01-20T05:10:51.941Z,100493.34
2023-01-20T05:13:18.835Z,100490.78
2023-01-20T05:15:45.698Z,100492.81
2023-01-20T05:18:12.706Z,100522.28
2023-01-20T05:20:39.853Z,100483.03
2023-01-20T05:23:06.744Z,100524.31
2023-01-20T05:25:33.630Z,100515.75
2023-01-20T05:28:00.593Z,100504.19
2023-01-20T05:30:27.889Z,100505.34
2023-01-20T05:32:54.923Z,100500.91
2023-01-20T05:35:22.093Z,100488.50
2023-01-20T05:37:52.404Z,100493.19
2023-01-20T05:40:19.284Z,100503.50
2023-01-20T05:42:46.270Z,100502.63
2023-01-20T05:45:13.520Z,100517.41
2023-01-20T05:47:40.591Z,100516.34
2023-01-20T05:50:08.353Z,100510.19
2023-01-20T05:52:35.153Z,100499.63
2023-01-20T05:55:02.098Z,100521.50
2023-01-20T05:57:28.983Z,100520.19
2023-01-20T05:59:55.811Z,100502.00
2023-01-20T06:02:22.746Z,100504.06
2023-01-20T06:04:49.622Z,100508.16
2023-01-20T06:07:16.560Z,100495.75
2023-01-20T06:09:43.542Z,100491.16
2023-01-20T06:12:10.425Z,100537.00
2023-01-20T06:14:37.580Z,100529.31
2023-01-20T06:17:04.610Z,100493.25
2023-01-20T06:19:31.500Z,100483.06
2023-01-20T06:21:58.466Z,100489.91
2023-01-20T06:24:25.416Z,100505.03
2023-01-20T06:26:52.281Z,100520.22
2023-01-20T06:29:19.226Z,100513.78
2023-01-20T06:31:46.567Z,100525.81
2023-01-20T06:34:13.487Z,100499.31
2023-01-20T06:36:40.484Z,100520.53
2023-01-20T06:39:07.593Z,100475.19
2023-01-20T06:41:34.550Z,100540.06
2023-01-20T06:44:01.401Z,100472.25
2023-01-20T06:46:28.397Z,100526.81
2023-01-20T06:48:55.285Z,100544.28
2023-01-20T06:51:22.152Z,100531.41
2023-01-20T06:53:49.174Z,100520.38
2023-01-20T06:56:16.254Z,100522.66
2023-01-20T06:58:43.293Z,100518.66
2023-01-20T07:01:22.806Z,100507.28
2023-01-20T07:03:50.083Z,100515.16
2023-01-20T07:06:30.383Z,100548.84
2023-01-20T07:08:58.947Z,100531.88
2023-01-20T07:11:26.875Z,100524.16
2023-01-20T07:13:53.870Z,100552.59
2023-01-20T07:16:20.859Z,100579.22
2023-01-20T07:18:49.896Z,100542.03
2023-01-20T07:21:17.701Z,100547.28
2023-01-20T07:23:45.180Z,100553.66
2023-01-20T07:26:15.390Z,100585.84
2023-01-20T07:28:42.535Z,100570.06
2023-01-20T07:31:21.571Z,100567.38
2023-01-20T07:33:49.680Z,100581.34
2023-01-20T07:36:17.010Z,100549.06
2023-01-20T07:38:47.505Z,100590.38
2023-01-20T07:41:14.450Z,100590.13
2023-01-20T07:43:42.234Z,100629.56
2023-01-20T07:46:10.429Z,100608.44
2023-01-20T07:48:38.645Z,100588.72
2023-01-20T07:51:08.425Z,100603.56
2023-01-20T07:53:37.650Z,100607.66
2023-01-20T07:56:12.636Z,100615.91
2023-01-20T07:58:39.714Z,100622.75
2023-01-20T08:01:15.597Z,100621.75
2023-01-20T08:03:43.539Z,100628.00
2023-01-20T08:06:13.341Z,100615.00
2023-01-20T08:08:40.793Z,100609.31
2023-01-20T08:11:08.501Z,100619.53
2023-01-20T08:13:35.526Z,100627.75
2023-01-20T08:16:05.187Z,100640.13
2023-01-20T08:18:33.164Z,100638.63
2023-01-20T08:21:00.048Z,100630.50
2023-01-20T08:23:27.358Z,100644.72
2023-01-20T08:26:02.199Z,100636.50
2023-01-20T08:28:30.457Z,100624.19
2023-01-20T08:31:12.553Z,100611.03
2023-01-20T08:33:41.323Z,100637.84
2023-01-20T08:36:11.472Z,100629.22
2023-01-20T08:38:38.517Z,100637.47
2023-01-20T08:41:23.732Z,100653.41
2023-01-20T08:43:51.805Z,100633.97
2023-01-20T08:46:21.226Z,100605.88
2023-01-20T08:48:49.975Z,100608.16
2023-01-20T08:51:20.998Z,100570.94
2023-01-20T08:53:48.230Z,100608.38
2023-01-20T08:56:16.192Z,100616.53
2023-01-20T08:58:43.190Z,100611.72
2023-01-20T09:01:15.734Z,100594.13
2023-01-20T09:03:49.419Z,100635.97
2023-01-20T09:06:26.544Z,100580.53
2023-01-20T09:08:54.272Z,100596.78
2023-01-20T09:11:22.913Z,100614.69
2023-01-20T09:13:49.820Z,100613.72
2023-01-20T09:16:19.837Z,100595.03
2023-01-20T09:18:46.820Z,100599.25
2023-01-20T09:21:13.725Z,100626.47
2023-01-20T09:23:41.344Z,100632.94
2023-01-20T09:26:09.621Z,100609.88
2023-01-20T09:28:36.713Z,100602.56
2023-01-20T09:31:09.096Z,100615.03
2023-01-20T09:33:38.494Z,100589.88
2023-01-20T09:36:07.928Z,100630.06
2023-01-20T09:38:35.235Z,100597.44
2023-01-20T09:41:27.980Z,100623.19
2023-01-20T09:44:56.359Z,100647.53
2023-01-20T09:47:31.849Z,100638.28
2023-01-20T09:50:17.337Z,100627.69
2023-01-20T09:52:45.115Z,100641.84
2023-01-20T09:55:19.825Z,100645.06
2023-01-20T09:57:54.383Z,100606.38
2023-01-20T10:00:26.940Z,100620.72
2023-01-20T10:03:05.683Z,100610.78
2023-01-20T10:05:39.724Z,100609.78
2023-01-20T10:08:13.698Z,100646.75
2023-01-20T10:10:50.791Z,100645.44
2023-01-20T10:13:31.395Z,100613.59
2023-01-20T10:16:05.137Z,100621.97
2023-01-20T10:18:54.028Z,100648.31
2023-01-20T10:21:31.652Z,100625.09
2023-01-20T10:24:29.638Z,100633.47
2023-01-20T10:27:03.098Z,100639.19
2023-01-20T10:29:38.004Z,100662.88
2023-01-20T10:32:33.849Z,100611.41
2023-01-20T10:35:23.426Z,100639.81
2023-01-20T10:37:52.805Z,100626.09
2023-01-20T10:40:44.682Z,100624.22
2023-01-20T10:43:14.971Z,100642.69
2023-01-20T10:46:01.554Z,100632.47
2023-01-20T10:49:02.730Z,100657.91
2023-01-20T10:51:46.053Z,100649.81
2023-01-20T10:54:37.443Z,100648.22
2023-01-20T10:57:10.537Z,100653.38
2023-01-20T10:59:50.322Z,100655.16
2023-01-20T11:02:29.462Z,100665.22
2023-01-20T11:05:15.375Z,100649.28
2023-01-20T11:07:44.587Z,100633.44
2023-01-20T11:10:32.624Z,100650.16
2023-01-20T11:13:01.923Z,100622.72
2023-01-20T11:15:31.431Z,100669.00
2023-01-20T11:18:16.641Z,100638.81
2023-01-20T11:20:48.269Z,100678.81
2023-01-20T11:23:26.740Z,100646.19
2023-01-20T11:26:00.000Z,100636.66
2023-01-20T11:28:29.098Z,100659.84
2023-01-20T11:30:57.452Z,100648.88
2023-01-20T11:33:27.639Z,100667.09
2023-01-20T11:36:17.595Z,100646.03
2023-01-20T11:38:49.443Z,100666.09
2023-01-20T11:41:27.816Z,100656.28
2023-01-20T11:43:59.678Z,100656.16
2023-01-20T11:46:26.538Z,100674.63
2023-01-20T11:49:22.106Z,100676.25
2023-01-20T11:51:57.230Z,100705.47
2023-01-20T11:54:26.809Z,100648.41
2023-01-20T11:56:59.281Z,100688.72
2023-01-20T11:59:32.066Z,100680.31
2023-01-20T12:02:05.160Z,100665.00
2023-01-20T12:04:50.694Z,100678.19
2023-01-20T12:07:35.275Z,100683.72
2023-01-20T12:10:14.696Z,100660.38
2023-01-20T12:12:44.678Z,100668.03
2023-01-20T12:15:27.956Z,100691.31
2023-01-20T12:18:02.807Z,100678.94
2023-01-20T12:20:56.155Z,100678.81
2023-01-20T12:23:23.085Z,100700.41
2023-01-20T12:26:00.725Z,100676.44
2023-01-20T12:28:42.601Z,100669.34
2023-01-20T12:31:11.314Z,100680.19
2023-01-20T12:33:44.343Z,100675.16
2023-01-20T12:36:43.533Z,100687.81
2023-01-20T12:39:52.957Z,100679.63
2023-01-20T12:42:44.175Z,100677.88
2023-01-20T12:45:39.683Z,100677.75
2023-01-20T12:48:39.073Z,100693.69
2023-01-20T12:51:26.985Z,100684.00
2023-01-20T12:54:47.457Z,100697.44
2023-01-20T12:57:45.124Z,100680.09
2023-01-20T13:00:27.627Z,100705.09
2023-01-20T13:03:31.686Z,100696.75
2023-01-20T13:06:20.649Z,100698.09
2023-01-20T13:08:47.510Z,100697.28
2023-01-20T13:11:51.387Z,100683.31
2023-01-20T13:14:25.024Z,100682.16
2023-01-20T13:17:05.796Z,100694.28
2023-01-20T13:19:37.106Z,100718.41
2023-01-20T13:22:19.941Z,100713.53
2023-01-20T13:24:53.927Z,100695.44
2023-01-20T13:27:30.444Z,100692.31
2023-01-20T13:29:59.761Z,100686.13
2023-01-20T13:32:45.859Z,100692.13
2023-01-20T13:35:18.651Z,100707.91
2023-01-20T13:38:03.859Z,100699.63
2023-01-20T13:40:36.655Z,100682.53
2023-01-20T13:43:23.866Z,100700.75
2023-01-20T13:46:13.836Z,100689.47
2023-01-20T13:49:18.288Z,100694.59
2023-01-20T13:51:46.434Z,100700.59
2023-01-20T13:54:25.302Z,100701.81
2023-01-20T13:56:53.075Z,100702.81
2023-01-20T13:59:19.987Z,100721.38
2023-01-20T14:01:46.958Z,100695.03
2023-01-20T14:04:19.090Z,100721.19
2023-01-20T14:06:51.244Z,100672.44
2023-01-20T14:09:26.278Z,100704.53
2023-01-20T14:11:57.698Z,100707.91
2023-01-20T14:14:27.007Z,100708.06
2023-01-20T14:16:56.378Z,100696.94
2023-01-20T14:19:32.103Z,100718.69
2023-01-20T14:22:04.743Z,100705.31
2023-01-20T14:24:43.344Z,100726.75
2023-01-20T14:27:23.549Z,100715.16
2023-01-20T14:29:52.879Z,100695.28
2023-01-20T14:32:24.938Z,100719.16
2023-01-20T14:34:53.345Z,100749.69
2023-01-20T14:37:30.392Z,100745.88
2023-01-20T14:40:00.525Z,100725.31
2023-01-20T14:42:29.159Z,100713.88
2023-01-20T14:44:57.954Z,100763.22
2023-01-20T14:47:26.940Z,100726.97
2023-01-20T14:49:54.808Z,100739.75
2023-01-20T14:52:26.947Z,100767.56
2023-01-20T14:54:54.145Z,100754.19
2023-01-20T14:57:24.453Z,100757.09
2023-01-20T15:00:13.217Z,100745.78
2023-01-20T15:02:43.356Z,100744.75
2023-01-20T15:05:31.982Z,100757.97
2023-01-20T15:08:19.010Z,100752.88
2023-01-20T15:10:46.063Z,100767.63
2023-01-20T15:13:28.792Z,100792.06
2023-01-20T15:16:24.921Z,100760.53
2023-01-20T15:19:13.707Z,100760.06
2023-01-20T15:21:43.626Z,100735.06
2023-01-20T15:24:15.478Z,100766.25
2023-01-20T15:26:43.037Z,100743.09
2023-01-20T15:29:20.585Z,100765.50
2023-01-20T15:31:48.248Z,100750.88
2023-01-20T15:34:15.221Z,100772.75
2023-01-20T15:36:44.275Z,100758.53
2023-01-20T15:39:16.041Z,100747.00
2023-01-20T15:41:43.477Z,100775.06
2023-01-20T15:44:10.461Z,100753.72
2023-01-20T15:46:37.454Z,100762.22
2023-01-20T15:49:04.346Z,100763.06
2023-01-20T15:51:31.310Z,100752.00
2023-01-20T15:53:58.367Z,100748.31
2023-01-20T15:56:30.993Z,100756.56
2023-01-20T15:58:58.218Z,100774.03
2023-01-20T16:01:27.302Z,100785.69
2023-01-20T16:03:55.859Z,100782.34
2023-01-20T16:06:33.496Z,100784.97
2023-01-20T16:09:02.525Z,100763.53
2023-01-20T16:11:29.526Z,100795.28
2023-01-20T16:13:56.670Z,100786.00
2023-01-20T16:16:24.241Z,100778.31
2023-01-20T16:18:51.325Z,100775.25
2023-01-20T16:21:19.477Z,100790.69
2023-01-20T16:23:47.730Z,100782.44
2023-01-20T16:26:20.838Z,100774.22
2023-01-20T16:28:48.643Z,100794.06
2023-01-20T16:31:15.934Z,100790.44
2023-01-20T16:33:42.987Z,100820.38
2023-01-20T16:36:15.218Z,100777.53
2023-01-20T16:38:43.177Z,100787.59
2023-01-20T16:41:27.569Z,100788.38
2023-01-20T16:43:55.931Z,100799.94
2023-01-20T16:46:27.382Z,100819.81
2023-01-20T16:48:55.219Z,100820.56
2023-01-20T16:51:23.412Z,100808.47
2023-01-20T16:53:50.323Z,100811.38
2023-01-20T16:56:22.814Z,100787.38
2023-01-20T16:58:51.760Z,100826.59
2023-01-20T17:01:20.508Z,100815.25
2023-01-20T17:03:48.483Z,100833.56
2023-01-20T17:06:20.418Z,100841.28
2023-01-20T17:08:52.930Z,100819.13
2023-01-20T17:11:35.196Z,100821.19
2023-01-20T17:14:05.651Z,100819.09
2023-01-20T17:16:33.272Z,100843.88
2023-01-20T17:19:01.616Z,100838.47
2023-01-20T17:21:30.919Z,100836.66
2023-01-20T17:24:01.288Z,100868.16
2023-01-20T17:26:28.868Z,100828.94
2023-01-20T17:28:57.459Z,100848.50
2023-01-20T17:31:24.419Z,100837.72
2023-01-20T17:33:51.651Z,100872.78
2023-01-20T17:36:18.739Z,100826.09
2023-01-20T17:38:46.445Z,100853.44
2023-01-20T17:41:14.909Z,100837.94
2023-01-20T17:43:45.769Z,100875.34
2023-01-20T17:46:18.189Z,100870.72
2023-01-20T17:48:46.789Z,100885.94
2023-01-20T17:51:19.479Z,100872.78
2023-01-20T17:53:46.912Z,100893.63
2023-01-20T17:56:15.364Z,100873.78
2023-01-20T17:58:44.473Z,100886.72
2023-01-20T18:01:18.266Z,100861.69
2023-01-20T18:03:46.444Z,100872.78
2023-01-20T18:06:14.786Z,100922.00
2023-01-20T18:08:42.473Z,100924.38
2023-01-20T18:11:12.359Z,100915.09
2023-01-20T18:13:39.288Z,100934.13
2023-01-20T18:16:08.315Z,100937.50
2023-01-20T18:18:35.291Z,100920.72
2023-01-20T18:21:16.794Z,100924.84
2023-01-20T18:23:44.879Z,100917.09
2023-01-20T18:26:13.641Z,100936.44
2023-01-20T18:28:41.917Z,100910.63
2023-01-20T18:31:17.511Z,100922.97
2023-01-20T18:33:48.691Z,100905.09
2023-01-20T18:36:30.344Z,100934.56
2023-01-20T18:38:59.656Z,100938.75
2023-01-20T18:41:28.766Z,100945.16
2023-01-20T18:43:56.075Z,100937.44
2023-01-20T18:46:23.592Z,100943.91
2023-01-20T18:48:50.728Z,100969.44
2023-01-20T18:51:20.266Z,100958.63
2023-01-20T18:53:55.492Z,100942.88
2023-01-20T18:56:23.142Z,100943.91
2023-01-20T18:58:51.438Z,100949.88
2023-01-20T19:01:23.698Z,100954.44
2023-01-20T19:03:51.408Z,100953.41
2023-01-20T19:06:20.991Z,100941.56
2023-01-20T19:08:48.454Z,100954.22
2023-01-20T19:11:21.603Z,100955.94
2023-01-20T19:13:50.565Z,100941.22
2023-01-20T19:16:21.619Z,100947.22
2023-01-20T19:18:53.886Z,100942.81
2023-01-20T19:21:22.262Z,100932.50
2023-01-20T19:23:53.791Z,100923.34
2023-01-20T19:26:22.638Z,100981.31
2023-01-20T19:28:57.353Z,100965.63
2023-01-20T19:31:24.619Z,100955.81
2023-01-20T19:33:52.063Z,100973.97
2023-01-20T19:36:19.562Z,100958.59
2023-01-20T19:38:47.029Z,100967.00
2023-01-20T19:41:17.084Z,100964.34
2023-01-20T19:43:45.175Z,100915.75
2023-01-20T19:46:15.362Z,100947.72
2023-01-20T19:48:42.640Z,100983.88
2023-01-20T19:51:12.278Z,100983.38
2023-01-20T19:53:40.138Z,100950.41
2023-01-20T19:56:09.683Z,100974.66
2023-01-20T19:58:37.271Z,100969.75
2023-01-20T20:01:09.435Z,100964.31
2023-01-20T20:03:36.690Z,100990.03
2023-01-20T20:06:06.574Z,101014.00
2023-01-20T20:08:34.264Z,100992.69
2023-01-20T20:11:01.176Z,100963.28
2023-01-20T20:13:28.205Z,100992.06
2023-01-20T20:16:02.805Z,100966.63
2023-01-20T20:18:29.835Z,100953.25
2023-01-20T20:20:56.883Z,100959.47
2023-01-20T20:23:24.404Z,100974.13
2023-01-20T20:25:52.705Z,100993.63
2023-01-20T20:28:19.689Z,100988.75
2023-01-20T20:30:46.687Z,100982.78
2023-01-20T20:33:13.734Z,100971.66
2023-01-20T20:35:40.623Z,100993.06
2023-01-20T20:38:07.564Z,101000.22
2023-01-20T20:40:34.775Z,100992.53
2023-01-20T20:43:01.716Z,101007.31
2023-01-20T20:45:28.554Z,101000.78
2023-01-20T20:47:57.343Z,101016.09
2023-01-20T20:50:24.200Z,101018.41
2023-01-20T20:52:51.225Z,100997.78
2023-01-20T20:55:18.108Z,101028.50
2023-01-20T20:57:45.186Z,101043.16
2023-01-20T21:00:12.645Z,101025.69
2023-01-20T21:02:39.708Z,101016.97
2023-01-20T21:05:07.405Z,100998.41
2023-01-20T21:07:34.390Z,101003.28
2023-01-20T21:10:01.243Z,101028.25
2023-01-20T21:12:28.139Z,101032.59
2023-01-20T21:14:55.093Z,101010.78
2023-01-20T21:17:22.198Z,101036.88
2023-01-20T21:19:51.438Z,101027.72
2023-01-20T21:22:19.216Z,101023.94
2023-01-20T21:24:46.118Z,101032.41
2023-01-20T21:27:13.051Z,101021.28
2023-01-20T21:29:39.953Z,101047.63
2023-01-20T21:32:06.904Z,101026.13
2023-01-20T21:34:33.769Z,101051.84
2023-01-20T21:37:00.888Z,101038.56
2023-01-20T21:39:27.737Z,101026.94
2023-01-20T21:41:54.644Z,101002.41
2023-01-20T21:44:21.532Z,101029.50
2023-01-20T21:46:48.552Z,101042.41
2023-01-20T21:49:15.538Z,101009.88
2023-01-20T21:51:42.499Z,101042.56
2023-01-20T21:54:09.348Z,101020.81
2023-01-20T21:56:36.335Z,101042.03
2023-01-20T21:59:03.407Z,101021.00
2023-01-20T22:01:30.255Z,101031.06
2023-01-20T22:03:57.092Z,101044.31
2023-01-20T22:06:24.052Z,101048.53
2023-01-20T22:08:50.856Z,101041.13
2023-01-20T22:11:17.771Z,101032.09
2023-01-20T22:13:44.672Z,101031.78
2023-01-20T22:16:11.815Z,101039.50
2023-01-20T22:18:38.643Z,101029.41
2023-01-20T22:21:07.203Z,101034.81
2023-01-20T22:23:35.348Z,101048.13
2023-01-20T22:26:02.979Z,101039.66
2023-01-20T22:28:30.200Z,101050.69
2023-01-20T22:31:05.633Z,100996.25
2023-01-20T22:33:32.718Z,101029.31
2023-01-20T22:35:59.670Z,101031.16
2023-01-20T22:38:26.639Z,101050.13
2023-01-20T22:40:53.496Z,101033.78
2023-01-20T22:43:20.688Z,101008.84
2023-01-20T22:45:48.510Z,101017.88
2023-01-20T22:48:15.586Z,101024.25
2023-01-20T22:50:42.436Z,101025.31
2023-01-20T22:53:09.474Z,101043.56
2023-01-20T22:55:36.338Z,101038.75
2023-01-20T22:58:03.267Z,101027.25
2023-01-20T23:00:30.150Z,101024.16
2023-01-20T23:02:57.211Z,101020.72
2023-01-20T23:05:24.043Z,101020.22
2023-01-20T23:07:50.926Z,101037.28
2023-01-20T23:10:18.187Z,100999.78
2023-01-20T23:12:45.325Z,101038.31
2023-01-20T23:15:12.179Z,101044.28
2023-01-20T23:17:39.143Z,101050.38
2023-01-20T23:20:06.522Z,101041.22
2023-01-20T23:22:33.443Z,101042.81
2023-01-20T23:25:00.435Z,101054.22
2023-01-20T23:27:27.342Z,101022.44
2023-01-20T23:29:54.430Z,101040.41
2023-01-20T23:32:21.464Z,101068.41
2023-01-20T23:34:48.295Z,101061.19
2023-01-20T23:37:16.570Z,101058.81
2023-01-20T23:39:43.403Z,101065.81
2023-01-20T23:42:10.327Z,101078.16
2023-01-20T23:44:37.174Z,101077.44
2023-01-20T23:47:04.159Z,101054.59
2023-01-20T23:49:31.024Z,101080.03
2023-01-20T23:51:57.986Z,101086.44
2023-01-20T23:54:24.852Z,101062.75
2023-01-20T23:56:52.010Z,101071.09
2023-01-20T23:59:18.951Z,101070.44
